AirNav   Air Wisconsin pilot careers
 
 1545 users online  

K57 Gould Peterson Municipal Airport
Tarkio, Missouri, USA

GOING TO TARKIO?


FAA INFORMATION EFFECTIVE 13 SEPTEMBER 2018

Location

FAA Identifier: K57
Lat/Long: 40-26-45.4000N / 095-22-02.3000W
40-26.756667N / 095-22.038333W
40.4459444 / -95.3673056
(estimated)
Elevation: 912.9 ft. / 278.3 m (surveyed)
Variation: 03E (2010)
From city: 1 mile E of TARKIO, MO
Time zone: UTC -5 (UTC -6 during Standard Time)
Zip code: 64491

Airport Operations

Airport use: Open to the public
Activation date: 05/1941
Control tower: no
ARTCC: MINNEAPOLIS CENTER
FSS: COLUMBIA FLIGHT SERVICE STATION
NOTAMs facility: COU (NOTAM-D service available)
Attendance: APR-OCT MON-FRI 0800-1700, APR-OCT SAT 0800-1200, NOV-MAR IREG IREG
Wind indicator: lighted
Segmented circle: no
Lights: TO INCR INTST & ACTVT MIRL RWY 18/36 - CTAF.
Beacon: white-green (lighted land airport)
Operates sunset to sunrise.

Airport Communications

CTAF: 122.9
WX AWOS-3 at SDA (18 nm N): 125.525 (712-246-4021)
  • APCH/DEP SVC PRVDD BY MINNEAPOLIS ARTCC ON FREQS 119.6/290.4 (OMAHA RCAG).

Nearby radio navigation aids

VOR radial/distance  VOR name  Freq  Var
STJr317/35.5ST JOSEPH VORTAC115.5008E
RBAr000/35.8ROBINSON VOR/DME108.2004E

 
NDB name  Hdg/Dist  Freq  Var  ID
SHENANDOAH169/18.441105ESDA ... -.. .-
NEBRASKA CITY108/24.534705EAFK .- ..-. -.-
PLATTSMOUTH135/38.832905EPMV .--. -- ...-
AMAZON324/39.823304EAZN .- --.. -.

Airport Services

Fuel available: 100LL
Parking: tiedowns
Airframe service: MINOR
Powerplant service: MINOR
Bottled oxygen: NONE
Bulk oxygen: NONE

Runway Information

Runway 18/36

Dimensions: 3564 x 60 ft. / 1086 x 18 m
Surface: concrete, in good condition
Weight bearing capacity: 
PCN 5 /R/D/W/T
Single wheel: 16.0
Runway edge lights: medium intensity
RUNWAY 18  RUNWAY 36
Latitude: 40-27.049580N40-26.462608N
Longitude: 095-22.033062W095-22.043107W
Elevation: 912.9 ft.909.3 ft.
Gradient: 0.1%0.1%
Traffic pattern: leftleft
Runway heading: 178 magnetic, 181 true358 magnetic, 001 true
Displaced threshold: 330 ft.no
Markings: nonprecision, in good conditionnonprecision, in good condition
Touchdown point: yes, no lightsyes, no lights
Obstructions: 15 ft. road, 391 ft. from runway, 12:1 slope to clear
+97 FT TREES, 1574 FT FM RY END, 126 FT R, 19:1 BASED ON DSPLCD THLD.
none

Airport Ownership and Management from official FAA records

Ownership: Publicly-owned
Owner: CITY OF TARKIO
602 MAIN STREET
TARKIO, MO 64491
Phone 660-736-4821
Manager: BROOKS HURST
19206 STATE HWY O
TARKIO, MO 64491
Phone 816-244-6927

Airport Operational Statistics

Aircraft based on the field: 21
Single engine airplanes: 21
    
Aircraft operations: avg 95/week *
57% local general aviation
42% transient general aviation
<1% military
<1% air taxi
* for 12-month period ending 31 December 2016

Additional Remarks

CROP DUSTING ACFT ON & INVOF ARPT.
WILDLIFE ON & INVOF ARPT.

Instrument Procedures

NOTE: All procedures below are presented as PDF files. If you need a reader for these files, you should download the free Adobe Reader.

NOT FOR NAVIGATION. Please procure official charts for flight.
FAA instrument procedures published for use from 13 September 2018 at 0901Z to 11 October 2018 at 0900Z.

 
IAPs - Instrument Approach Procedures
RNAV (GPS) RWY 18   download (206KB)
RNAV (GPS) RWY 36   download (206KB)
NOTE: Special Take-Off Minimums/Departure Procedures apply   download (158KB)

Other nearby airports with instrument procedures:

KSDA - Shenandoah Municipal Airport (18 nm N)
KEVU - Northwest Missouri Regional Airport (21 nm E)
KICL - Schenck Field Airport (23 nm NE)
KFNB - Brenner Field Airport (24 nm SW)
KAFK - Nebraska City Municipal Airport (25 nm NW)
 
Loc | Ops | Rwys | IFR | FBO | Links
Com | Nav | Svcs | Stats | Notes

Kansas City Aviation Department
 
Area around K57 (Gould Peterson Municipal Airport)
 
Road maps at: MapQuest Bing Google
 
Aerial photo
WARNING: Photo may not be current or correct
Aerial photo of K57 (Gould Peterson Municipal Airport)
Do you have a better or more recent aerial photo of Gould Peterson Municipal Airport that you would like to share? If so, please send us your photo.

 
Sectional chart

 
Airport distance calculator
Flying to Gould Peterson Municipal Airport? Find the distance to fly.

From to K57

Sunrise and sunset
Times for 21-Sep-2018
 Local
(UTC-5)
 Zulu
(UTC)
Morning civil twilight06:4211:42
Sunrise07:0912:09
Sunset19:2000:20
Evening civil twilight19:4700:47

Current date and time
Zulu (UTC)  21-Sep-2018 15:44:38
Local (UTC-5)  21-Sep-2018 10:44:38
 
METAR
KSDA 
18nm N 
211535Z AUTO 34017G23KT 10SM CLR 16/10 A3018 RMK AO2
KEVU 
21nm E 
211535Z AUTO 35014G19KT 10SM CLR 17/06 A3016 RMK AO2
KICL 
23nm NE 
211535Z AUTO 33015G23KT 10SM FEW028 17/10 A3019 RMK AO2
KAFK 
25nm NW 
211535Z AUTO 34013G22KT 10SM CLR 16/09 A3019 RMK AO2 T01600089
KFNB 
25nm SW 
211453Z AUTO 33015G23KT 10SM CLR 16/11 A3015 RMK AO2 SLP206 T01610106 51021
KRDK 
35nm N 
211535Z AUTO 33018G24KT 10SM FEW028 16/10 A3017 RMK AO2
TAF
KSTJ 
46nm SE 
211120Z 2112/2212 32011KT P6SM SCT025 BKN100 FM211400 36014G22KT P6SM BKN100 FM212300 02008KT P6SM SCT250
KOFF 
47nm NW 
211200Z 2112/2216 31009KT 9999 BKN250 QNH2997INS BECMG 2112/2113 34015G25KT 9999 FEW050 QNH3015INS BECMG 2121/2122 VRB06KT 9999 SKC QNH3025INS BECMG 2214/2215 15012KT 9999 SKC QNH3018INS TX19/2121Z TN05/2210Z
NOTAMs
Click for the latest NOTAMs
NOTAMs are issued by the DoD/FAA and will open in a separate window not controlled by AirNav.

 

 
 

FBO, Fuel Providers, and Aircraft Ground Support

  
 Business Name 
 
 Contact 
 
 Services / Description 
 
Fuel Prices
 
Comments
  
Wing Nuts Flying Circus Aviation 816-244-6927
660-736-4322
[web site]
[email]
Airport management, Aviation fuel, Aircraft parking (ramp or tiedown), Hangars, Passenger terminal and lounge, Flying club, Airshow or aviation event, ...

More info about Wing Nuts Flying Circus Aviation
Phillips 66
100LL
SS $4.50 
 Updated 05-Sep-2018
 
   1 read write
SS=Self service
Update Fuel Prices
 

Would you like to see your business listed on this page?

 If your business provides an interesting product or service to pilots, flight crews, aircraft, or users of the Gould Peterson Municipal Airport, you should consider listing it here.  To start the listing process, click on the button below
 
Add a business
 

Other Pages about Gould Peterson Municipal Airport

Update a link
 
Copyright © AirNav, LLC. All rights reserved. Privacy Policy  Contact